John_paul K — PBHY — position and weather

sailwx.info

Track history (hours):
 
Tides and Currents Weather Stations Pressure Air Temp Water Temp Dewpoint Dewpoint Depression Visibility Wind Speed Wind Dir Waves Ship Positions

John_paul K

Last reported at 2018-Feb-19 22:00 UTC. Time now 2018-Feb-19 22:08 UTC.
Position N 38°51' W 009°42'.

Length 90 m; draft 4 m.

Type: Cargo ship. MMSI: 245181000.

Date/timePositionNaut miles runAvg speedWind from/ knotsBaromVisibWave heightAir tempDewpointWater temp
2018-Feb-19 22:00N 38°51' W 009°42'4 8.1
2018-Feb-19 21:30N 38°47' W 009°42'4 8.6
2018-Feb-19 21:01N 38°43' W 009°41'4 7.6
2018-Feb-19 20:30N 38°39' W 009°40'5 9.6
2018-Feb-19 20:00N 38°38' W 009°34'510.0
2018-Feb-19 19:30N 38°38' W 009°28'5 9.8
2018-Feb-19 18:58N 38°38' W 009°21'511.3
2018-Feb-19 18:30N 38°41' W 009°15'611.7
2018-Feb-19 18:00N 38°42' W 009°08'2 0.4
2018-Feb-19 11:34N 38°44' W 009°06'0 0.0
2018-Feb-19 11:25N 38°44' W 009°06'0 0.0
2018-Feb-19 00:40N 38°44' W 009°06'0 0.0
2018-Feb-19 00:28N 38°44' W 009°06'0 0.0
2018-Feb-18 23:16N 38°44' W 009°06'0 0.0
2018-Feb-18 22:52N 38°44' W 009°06'0 0.0
2018-Feb-18 22:19N 38°44' W 009°06'0 0.0
2018-Feb-18 21:58N 38°44' W 009°06'0 0.0
2018-Feb-18 05:48N 38°44' W 009°06'0 0.0
2018-Feb-18 05:30N 38°44' W 009°06'0 0.0
2018-Feb-18 04:54N 38°44' W 009°06'0 0.0
2018-Feb-16 18:04N 38°44' W 009°06'0 0.8
2018-Feb-16 17:58N 38°44' W 009°06'3 5.9
2018-Feb-16 17:30N 38°42' W 009°09'610.1
2018-Feb-16 16:57N 38°41' W 009°16'510.8
2018-Feb-16 16:30N 38°39' W 009°21'2 4.8
2018-Feb-16 16:00N 38°39' W 009°24'1 1.9
2018-Feb-16 15:30N 38°40' W 009°23'0 0.1
2018-Feb-16 15:00N 38°40' W 009°23'0 0.0
2018-Feb-16 14:24N 38°40' W 009°23'0 0.0
2018-Feb-16 14:00N 38°40' W 009°23'0 0.0
2018-Feb-16 13:30N 38°40' W 009°23'0 0.0
2018-Feb-16 12:57N 38°40' W 009°23'0 0.0
2018-Feb-16 12:30N 38°40' W 009°23'2 3.3
2018-Feb-16 12:00N 38°40' W 009°25'510.1
2018-Feb-16 11:30N 38°40' W 009°32'510.5
2018-Feb-16 11:00N 38°39' W 009°39'4 7.6
2018-Feb-16 10:30N 38°42' W 009°42'5 9.9
2018-Feb-16 10:00N 38°47' W 009°43'510.2
2018-Feb-16 09:30N 38°52' W 009°44'510.2
2018-Feb-16 09:00N 38°57' W 009°44'510.2
2018-Feb-16 08:30N 39°02' W 009°45'510.6
2018-Feb-16 08:00N 39°07' W 009°45'510.7
2018-Feb-16 07:30N 39°13' W 009°45'510.5
2018-Feb-16 07:00N 39°18' W 009°46'510.2
2018-Feb-16 06:30N 39°23' W 009°46'5 9.9
2018-Feb-16 06:00N 39°28' W 009°47'6 9.9
2018-Feb-16 05:22N 39°34' W 009°47'  
2018-Feb-12 19:15N 45°59' W 001°46'2 9.4
2018-Feb-12 19:00N 45°60' W 001°43'5 9.5
2018-Feb-12 18:30N 46°02' W 001°37'5 9.7
2018-Feb-12 18:00N 46°04' W 001°30'510.3
2018-Feb-12 17:30N 46°06' W 001°23'510.5
2018-Feb-12 17:00N 46°06' W 001°16'4 7.0
2018-Feb-12 16:30N 46°09' W 001°13'0 0.0
2018-Feb-12 15:59N 46°09' W 001°13'0 0.0
2018-Feb-12 15:29N 46°09' W 001°13'0 0.0
2018-Feb-12 14:59N 46°09' W 001°13'0 0.0
2018-Feb-12 14:29N 46°09' W 001°13'0 0.0
2018-Feb-12 13:59N 46°09' W 001°13'0 0.0
2018-Feb-12 13:29N 46°09' W 001°13'0 0.0
2018-Feb-12 12:59N 46°09' W 001°13'0 0.0
2018-Feb-12 12:29N 46°09' W 001°13'0 0.1
2018-Feb-12 11:59N 46°09' W 001°13'0 0.0
2018-Feb-12 11:29N 46°09' W 001°13'0 0.0
2018-Feb-12 10:59N 46°09' W 001°13'0 0.0
2018-Feb-12 10:29N 46°09' W 001°13'0 0.0
2018-Feb-12 09:59N 46°09' W 001°13'0 0.0
2018-Feb-12 09:29N 46°09' W 001°13'0 0.0
2018-Feb-12 08:59N 46°09' W 001°13'0 0.0
2018-Feb-12 08:29N 46°09' W 001°13'0 0.0
2018-Feb-12 07:59N 46°09' W 001°13'0 0.0
2018-Feb-12 07:29N 46°09' W 001°13'0 0.0
2018-Feb-12 06:59N 46°09' W 001°13'0 0.0
2018-Feb-12 06:29N 46°09' W 001°13'0 0.0
2018-Feb-12 05:59N 46°09' W 001°13'0 0.0
2018-Feb-12 05:29N 46°09' W 001°13'0 0.0
2018-Feb-12 04:59N 46°09' W 001°13'0 0.0
2018-Feb-12 04:29N 46°09' W 001°13'0 0.0
2018-Feb-12 03:59N 46°09' W 001°13'0 0.0
2018-Feb-12 03:29N 46°09' W 001°13'0 0.0
2018-Feb-12 02:59N 46°09' W 001°13'0 0.0
2018-Feb-12 02:29N 46°09' W 001°13'0 0.0
2018-Feb-12 01:59N 46°09' W 001°13'0 0.0
2018-Feb-12 01:29N 46°09' W 001°13'0 0.0
2018-Feb-12 00:59N 46°09' W 001°13'0 0.0
2018-Feb-12 00:28N 46°09' W 001°13'0 0.0
2018-Feb-11 23:58N 46°09' W 001°13'0 0.0
2018-Feb-11 23:28N 46°09' W 001°13'0 0.0
2018-Feb-11 22:58N 46°09' W 001°13'0 0.0
2018-Feb-11 22:28N 46°09' W 001°13'0 0.0
2018-Feb-11 21:58N 46°09' W 001°13'0 0.0
2018-Feb-11 21:28N 46°09' W 001°13'0 0.0
2018-Feb-11 20:58N 46°09' W 001°13'0 0.0
2018-Feb-11 20:28N 46°09' W 001°13'0 0.0
2018-Feb-11 19:58N 46°09' W 001°13'0 0.0
2018-Feb-11 19:28N 46°09' W 001°13'0 0.0
2018-Feb-11 18:58N 46°09' W 001°13'0 0.0
2018-Feb-11 18:28N 46°09' W 001°13'0 0.0
2018-Feb-11 17:58N 46°09' W 001°13'0 0.0
2018-Feb-11 17:28N 46°09' W 001°13'0 0.0
2018-Feb-11 16:58N 46°09' W 001°13'0 0.0
2018-Feb-11 16:28N 46°09' W 001°13'0 0.0
2018-Feb-11 15:58N 46°09' W 001°13'0 0.0
2018-Feb-11 15:28N 46°09' W 001°13'0 0.0
2018-Feb-11 14:58N 46°09' W 001°13'0 0.0
2018-Feb-11 14:28N 46°09' W 001°13'0 0.0
2018-Feb-11 13:58N 46°09' W 001°13'0 0.0
2018-Feb-11 13:28N 46°09' W 001°13'0 0.0
2018-Feb-11 12:58N 46°09' W 001°13'0 0.0
2018-Feb-11 12:28N 46°09' W 001°13'0 0.0
2018-Feb-11 11:58N 46°09' W 001°13'0 0.0
2018-Feb-11 11:28N 46°09' W 001°13'0 0.0
2018-Feb-11 10:58N 46°09' W 001°13'0 0.0
2018-Feb-11 10:28N 46°09' W 001°13'0 0.0
2018-Feb-11 09:58N 46°09' W 001°13'0 0.0
2018-Feb-11 09:28N 46°09' W 001°13'0 0.0
2018-Feb-11 08:58N 46°09' W 001°13'0 0.0
2018-Feb-11 08:28N 46°09' W 001°13'0 0.0
2018-Feb-11 07:58N 46°09' W 001°13'0 0.0
2018-Feb-11 07:28N 46°09' W 001°13'0 0.0
2018-Feb-11 06:58N 46°09' W 001°13'0 0.0
2018-Feb-11 06:28N 46°09' W 001°13'0 0.0
2018-Feb-11 05:58N 46°09' W 001°13'0 0.0
2018-Feb-11 05:28N 46°09' W 001°13'0 0.0
2018-Feb-11 04:58N 46°09' W 001°13'0 0.0
2018-Feb-11 04:28N 46°09' W 001°13'0 0.0
2018-Feb-11 03:58N 46°09' W 001°13'0 0.0
2018-Feb-11 03:28N 46°09' W 001°13'0 0.0
2018-Feb-11 02:58N 46°09' W 001°13'0 0.0
2018-Feb-11 02:28N 46°09' W 001°13'0 0.0
2018-Feb-11 01:58N 46°09' W 001°13'0 0.0
2018-Feb-11 01:28N 46°09' W 001°13'0 0.0
2018-Feb-11 00:58N 46°09' W 001°13'0 0.0
2018-Feb-11 00:28N 46°09' W 001°13'0 0.0
2018-Feb-10 23:58N 46°09' W 001°13'0 0.0
2018-Feb-10 23:28N 46°09' W 001°13'0 0.0
2018-Feb-10 22:58N 46°09' W 001°13'0 0.0
2018-Feb-10 22:28N 46°09' W 001°13'0 0.0
2018-Feb-10 21:58N 46°09' W 001°13'0 0.0
2018-Feb-10 21:28N 46°09' W 001°13'0 0.0
2018-Feb-10 20:58N 46°09' W 001°13'0 0.0
2018-Feb-10 20:28N 46°09' W 001°13'0 0.0
2018-Feb-10 19:58N 46°09' W 001°13'0 0.0
2018-Feb-10 19:31N 46°09' W 001°13'0 0.0
2018-Feb-10 19:01N 46°09' W 001°13'0 0.0
2018-Feb-10 18:30N 46°09' W 001°13'0 0.0
2018-Feb-10 18:00N 46°09' W 001°13'0 0.0
2018-Feb-10 17:30N 46°09' W 001°13'0 0.0
2018-Feb-10 17:00N 46°09' W 001°13'0 0.0
2018-Feb-10 16:30N 46°09' W 001°13'0 0.0
2018-Feb-10 16:00N 46°09' W 001°13'0 0.0
2018-Feb-10 15:30N 46°09' W 001°13'0 0.0
2018-Feb-10 15:00N 46°09' W 001°13'0 0.0
2018-Feb-10 14:30N 46°09' W 001°13'0 0.0
2018-Feb-10 14:00N 46°09' W 001°13'0 0.0
2018-Feb-10 13:30N 46°09' W 001°13'0 0.0
2018-Feb-10 13:00N 46°09' W 001°13'0 0.0
2018-Feb-10 12:30N 46°09' W 001°13'0 0.0
2018-Feb-10 12:00N 46°09' W 001°13'0 0.0
2018-Feb-10 11:30N 46°09' W 001°13'0 0.0
2018-Feb-10 11:00N 46°09' W 001°13'0 0.0
2018-Feb-10 10:30N 46°09' W 001°13'0 0.0
2018-Feb-10 10:00N 46°09' W 001°13'0 0.0
2018-Feb-10 09:30N 46°09' W 001°13'0 0.0
2018-Feb-10 09:00N 46°09' W 001°13'0 0.0
2018-Feb-10 08:30N 46°09' W 001°13'0 0.0
2018-Feb-10 08:00N 46°09' W 001°13'0 0.0
2018-Feb-10 07:30N 46°09' W 001°13'0 0.0
2018-Feb-10 07:00N 46°09' W 001°13'0 0.0
2018-Feb-10 06:30N 46°09' W 001°13'0 0.0
2018-Feb-10 06:00N 46°09' W 001°13'0 0.0
2018-Feb-10 05:30N 46°09' W 001°13'0 0.0
2018-Feb-10 05:00N 46°09' W 001°13'0 0.0
2018-Feb-10 04:30N 46°09' W 001°13'0 0.0
2018-Feb-10 04:00N 46°09' W 001°13'0 0.0
2018-Feb-10 03:30N 46°09' W 001°13'0 0.0
2018-Feb-10 03:00N 46°09' W 001°13'0 0.0
2018-Feb-10 02:30N 46°09' W 001°13'0 0.0
2018-Feb-10 02:00N 46°09' W 001°13'0 0.0
2018-Feb-10 01:30N 46°09' W 001°13'0 0.0
2018-Feb-10 01:00N 46°09' W 001°13'0 0.0
2018-Feb-10 00:30N 46°09' W 001°13'0 0.0
2018-Feb-10 00:00N 46°09' W 001°13'0 0.0
2018-Feb-09 23:30N 46°09' W 001°13'0 0.0
2018-Feb-09 23:00N 46°09' W 001°13'0 0.0
2018-Feb-09 22:45N 46°09' W 001°13'  
Track history (hours):
 
Tides and Currents Weather Stations Pressure Air Temp Water Temp Dewpoint Dewpoint Depression Visibility Wind Speed Wind Dir Waves Ship Positions

John_paul K

Last reported at 2018-Feb-19 22:00 UTC. Time now 2018-Feb-19 22:08 UTC.
Position N 38°51' W 009°42'.

Length 90 m; draft 4 m.

Type: Cargo ship. MMSI: 245181000.

Date/timePositionNaut miles runAvg speedWind from/ knotsBaromVisibWave heightAir tempDewpointWater temp
2018-Feb-19 22:00N 38°51' W 009°42'4 8.1
2018-Feb-19 21:30N 38°47' W 009°42'4 8.6
2018-Feb-19 21:01N 38°43' W 009°41'4 7.6
2018-Feb-19 20:30N 38°39' W 009°40'5 9.6
2018-Feb-19 20:00N 38°38' W 009°34'510.0
2018-Feb-19 19:30N 38°38' W 009°28'5 9.8
2018-Feb-19 18:58N 38°38' W 009°21'511.3
2018-Feb-19 18:30N 38°41' W 009°15'611.7
2018-Feb-19 18:00N 38°42' W 009°08'2 0.4
2018-Feb-19 11:34N 38°44' W 009°06'0 0.0
2018-Feb-19 11:25N 38°44' W 009°06'0 0.0
2018-Feb-19 00:40N 38°44' W 009°06'0 0.0
2018-Feb-19 00:28N 38°44' W 009°06'0 0.0
2018-Feb-18 23:16N 38°44' W 009°06'0 0.0
2018-Feb-18 22:52N 38°44' W 009°06'0 0.0
2018-Feb-18 22:19N 38°44' W 009°06'0 0.0
2018-Feb-18 21:58N 38°44' W 009°06'0 0.0
2018-Feb-18 05:48N 38°44' W 009°06'0 0.0
2018-Feb-18 05:30N 38°44' W 009°06'0 0.0
2018-Feb-18 04:54N 38°44' W 009°06'0 0.0
2018-Feb-16 18:04N 38°44' W 009°06'0 0.8
2018-Feb-16 17:58N 38°44' W 009°06'3 5.9
2018-Feb-16 17:30N 38°42' W 009°09'610.1
2018-Feb-16 16:57N 38°41' W 009°16'510.8
2018-Feb-16 16:30N 38°39' W 009°21'2 4.8
2018-Feb-16 16:00N 38°39' W 009°24'1 1.9
2018-Feb-16 15:30N 38°40' W 009°23'0 0.1
2018-Feb-16 15:00N 38°40' W 009°23'0 0.0
2018-Feb-16 14:24N 38°40' W 009°23'0 0.0
2018-Feb-16 14:00N 38°40' W 009°23'0 0.0
2018-Feb-16 13:30N 38°40' W 009°23'0 0.0
2018-Feb-16 12:57N 38°40' W 009°23'0 0.0
2018-Feb-16 12:30N 38°40' W 009°23'2 3.3
2018-Feb-16 12:00N 38°40' W 009°25'510.1
2018-Feb-16 11:30N 38°40' W 009°32'510.5
2018-Feb-16 11:00N 38°39' W 009°39'4 7.6
2018-Feb-16 10:30N 38°42' W 009°42'5 9.9
2018-Feb-16 10:00N 38°47' W 009°43'510.2
2018-Feb-16 09:30N 38°52' W 009°44'510.2
2018-Feb-16 09:00N 38°57' W 009°44'510.2
2018-Feb-16 08:30N 39°02' W 009°45'510.6
2018-Feb-16 08:00N 39°07' W 009°45'510.7
2018-Feb-16 07:30N 39°13' W 009°45'510.5
2018-Feb-16 07:00N 39°18' W 009°46'510.2
2018-Feb-16 06:30N 39°23' W 009°46'5 9.9
2018-Feb-16 06:00N 39°28' W 009°47'6 9.9
2018-Feb-16 05:22N 39°34' W 009°47'  
2018-Feb-12 19:15N 45°59' W 001°46'2 9.4
2018-Feb-12 19:00N 45°60' W 001°43'5 9.5
2018-Feb-12 18:30N 46°02' W 001°37'5 9.7
2018-Feb-12 18:00N 46°04' W 001°30'510.3
2018-Feb-12 17:30N 46°06' W 001°23'510.5
2018-Feb-12 17:00N 46°06' W 001°16'4 7.0
2018-Feb-12 16:30N 46°09' W 001°13'0 0.0
2018-Feb-12 15:59N 46°09' W 001°13'0 0.0
2018-Feb-12 15:29N 46°09' W 001°13'0 0.0
2018-Feb-12 14:59N 46°09' W 001°13'0 0.0
2018-Feb-12 14:29N 46°09' W 001°13'0 0.0
2018-Feb-12 13:59N 46°09' W 001°13'0 0.0
2018-Feb-12 13:29N 46°09' W 001°13'0 0.0
2018-Feb-12 12:59N 46°09' W 001°13'0 0.0
2018-Feb-12 12:29N 46°09' W 001°13'0 0.1
2018-Feb-12 11:59N 46°09' W 001°13'0 0.0
2018-Feb-12 11:29N 46°09' W 001°13'0 0.0
2018-Feb-12 10:59N 46°09' W 001°13'0 0.0
2018-Feb-12 10:29N 46°09' W 001°13'0 0.0
2018-Feb-12 09:59N 46°09' W 001°13'0 0.0
2018-Feb-12 09:29N 46°09' W 001°13'0 0.0
2018-Feb-12 08:59N 46°09' W 001°13'0 0.0
2018-Feb-12 08:29N 46°09' W 001°13'0 0.0
2018-Feb-12 07:59N 46°09' W 001°13'0 0.0
2018-Feb-12 07:29N 46°09' W 001°13'0 0.0
2018-Feb-12 06:59N 46°09' W 001°13'0 0.0
2018-Feb-12 06:29N 46°09' W 001°13'0 0.0
2018-Feb-12 05:59N 46°09' W 001°13'0 0.0
2018-Feb-12 05:29N 46°09' W 001°13'0 0.0
2018-Feb-12 04:59N 46°09' W 001°13'0 0.0
2018-Feb-12 04:29N 46°09' W 001°13'0 0.0
2018-Feb-12 03:59N 46°09' W 001°13'0 0.0
2018-Feb-12 03:29N 46°09' W 001°13'0 0.0
2018-Feb-12 02:59N 46°09' W 001°13'0 0.0
2018-Feb-12 02:29N 46°09' W 001°13'0 0.0
2018-Feb-12 01:59N 46°09' W 001°13'0 0.0
2018-Feb-12 01:29N 46°09' W 001°13'0 0.0
2018-Feb-12 00:59N 46°09' W 001°13'0 0.0
2018-Feb-12 00:28N 46°09' W 001°13'0 0.0
2018-Feb-11 23:58N 46°09' W 001°13'0 0.0
2018-Feb-11 23:28N 46°09' W 001°13'0 0.0
2018-Feb-11 22:58N 46°09' W 001°13'0 0.0
2018-Feb-11 22:28N 46°09' W 001°13'0 0.0
2018-Feb-11 21:58N 46°09' W 001°13'0 0.0
2018-Feb-11 21:28N 46°09' W 001°13'0 0.0
2018-Feb-11 20:58N 46°09' W 001°13'0 0.0
2018-Feb-11 20:28N 46°09' W 001°13'0 0.0
2018-Feb-11 19:58N 46°09' W 001°13'0 0.0
2018-Feb-11 19:28N 46°09' W 001°13'0 0.0
2018-Feb-11 18:58N 46°09' W 001°13'0 0.0
2018-Feb-11 18:28N 46°09' W 001°13'0 0.0
2018-Feb-11 17:58N 46°09' W 001°13'0 0.0
2018-Feb-11 17:28N 46°09' W 001°13'0 0.0
2018-Feb-11 16:58N 46°09' W 001°13'0 0.0
2018-Feb-11 16:28N 46°09' W 001°13'0 0.0
2018-Feb-11 15:58N 46°09' W 001°13'0 0.0
2018-Feb-11 15:28N 46°09' W 001°13'0 0.0
2018-Feb-11 14:58N 46°09' W 001°13'0 0.0
2018-Feb-11 14:28N 46°09' W 001°13'0 0.0
2018-Feb-11 13:58N 46°09' W 001°13'0 0.0
2018-Feb-11 13:28N 46°09' W 001°13'0 0.0
2018-Feb-11 12:58N 46°09' W 001°13'0 0.0
2018-Feb-11 12:28N 46°09' W 001°13'0 0.0
2018-Feb-11 11:58N 46°09' W 001°13'0 0.0
2018-Feb-11 11:28N 46°09' W 001°13'0 0.0
2018-Feb-11 10:58N 46°09' W 001°13'0 0.0
2018-Feb-11 10:28N 46°09' W 001°13'0 0.0
2018-Feb-11 09:58N 46°09' W 001°13'0 0.0
2018-Feb-11 09:28N 46°09' W 001°13'0 0.0
2018-Feb-11 08:58N 46°09' W 001°13'0 0.0
2018-Feb-11 08:28N 46°09' W 001°13'0 0.0
2018-Feb-11 07:58N 46°09' W 001°13'0 0.0
2018-Feb-11 07:28N 46°09' W 001°13'0 0.0
2018-Feb-11 06:58N 46°09' W 001°13'0 0.0
2018-Feb-11 06:28N 46°09' W 001°13'0 0.0
2018-Feb-11 05:58N 46°09' W 001°13'0 0.0
2018-Feb-11 05:28N 46°09' W 001°13'0 0.0
2018-Feb-11 04:58N 46°09' W 001°13'0 0.0
2018-Feb-11 04:28N 46°09' W 001°13'0 0.0
2018-Feb-11 03:58N 46°09' W 001°13'0 0.0
2018-Feb-11 03:28N 46°09' W 001°13'0 0.0
2018-Feb-11 02:58N 46°09' W 001°13'0 0.0
2018-Feb-11 02:28N 46°09' W 001°13'0 0.0
2018-Feb-11 01:58N 46°09' W 001°13'0 0.0
2018-Feb-11 01:28N 46°09' W 001°13'0 0.0
2018-Feb-11 00:58N 46°09' W 001°13'0 0.0
2018-Feb-11 00:28N 46°09' W 001°13'0 0.0
2018-Feb-10 23:58N 46°09' W 001°13'0 0.0
2018-Feb-10 23:28N 46°09' W 001°13'0 0.0
2018-Feb-10 22:58N 46°09' W 001°13'0 0.0
2018-Feb-10 22:28N 46°09' W 001°13'0 0.0
2018-Feb-10 21:58N 46°09' W 001°13'0 0.0
2018-Feb-10 21:28N 46°09' W 001°13'0 0.0
2018-Feb-10 20:58N 46°09' W 001°13'0 0.0
2018-Feb-10 20:28N 46°09' W 001°13'0 0.0
2018-Feb-10 19:58N 46°09' W 001°13'0 0.0
2018-Feb-10 19:31N 46°09' W 001°13'0 0.0
2018-Feb-10 19:01N 46°09' W 001°13'0 0.0
2018-Feb-10 18:30N 46°09' W 001°13'0 0.0
2018-Feb-10 18:00N 46°09' W 001°13'0 0.0
2018-Feb-10 17:30N 46°09' W 001°13'0 0.0
2018-Feb-10 17:00N 46°09' W 001°13'0 0.0
2018-Feb-10 16:30N 46°09' W 001°13'0 0.0
2018-Feb-10 16:00N 46°09' W 001°13'0 0.0
2018-Feb-10 15:30N 46°09' W 001°13'0 0.0
2018-Feb-10 15:00N 46°09' W 001°13'0 0.0
2018-Feb-10 14:30N 46°09' W 001°13'0 0.0
2018-Feb-10 14:00N 46°09' W 001°13'0 0.0
2018-Feb-10 13:30N 46°09' W 001°13'0 0.0
2018-Feb-10 13:00N 46°09' W 001°13'0 0.0
2018-Feb-10 12:30N 46°09' W 001°13'0 0.0
2018-Feb-10 12:00N 46°09' W 001°13'0 0.0
2018-Feb-10 11:30N 46°09' W 001°13'0 0.0
2018-Feb-10 11:00N 46°09' W 001°13'0 0.0
2018-Feb-10 10:30N 46°09' W 001°13'0 0.0
2018-Feb-10 10:00N 46°09' W 001°13'0 0.0
2018-Feb-10 09:30N 46°09' W 001°13'0 0.0
2018-Feb-10 09:00N 46°09' W 001°13'0 0.0
2018-Feb-10 08:30N 46°09' W 001°13'0 0.0
2018-Feb-10 08:00N 46°09' W 001°13'0 0.0
2018-Feb-10 07:30N 46°09' W 001°13'0 0.0
2018-Feb-10 07:00N 46°09' W 001°13'0 0.0
2018-Feb-10 06:30N 46°09' W 001°13'0 0.0
2018-Feb-10 06:00N 46°09' W 001°13'0 0.0
2018-Feb-10 05:30N 46°09' W 001°13'0 0.0
2018-Feb-10 05:00N 46°09' W 001°13'0 0.0
2018-Feb-10 04:30N 46°09' W 001°13'0 0.0
2018-Feb-10 04:00N 46°09' W 001°13'0 0.0
2018-Feb-10 03:30N 46°09' W 001°13'0 0.0
2018-Feb-10 03:00N 46°09' W 001°13'0 0.0
2018-Feb-10 02:30N 46°09' W 001°13'0 0.0
2018-Feb-10 02:00N 46°09' W 001°13'0 0.0
2018-Feb-10 01:30N 46°09' W 001°13'0 0.0
2018-Feb-10 01:00N 46°09' W 001°13'0 0.0
2018-Feb-10 00:30N 46°09' W 001°13'0 0.0
2018-Feb-10 00:00N 46°09' W 001°13'0 0.0
2018-Feb-09 23:30N 46°09' W 001°13'0 0.0
2018-Feb-09 23:00N 46°09' W 001°13'0 0.0
2018-Feb-09 22:45N 46°09' W 001°13'  

Dump ship's entire track history